Time;durP1;ratioP1;P1;durP2;ratioP2;P2;SDS_P1;SDS_P2;PMS_P1;PMS_P2;Temp;Humidity;BMP_temperature;BMP_pressure;BME280_temperature;BME280_humidity;BME280_pressure;Samples;Min_cycle;Max_cycle;Signal;HPM_P1;HPM_P2
2021/08/09 00:01:45;;;;;;;2.05;1.67;;;10.60;64.80;;;;;;5013634;28;20205;-50
2021/08/09 00:04:16;;;;;;;2.40;1.60;;;10.60;64.80;;;;;;5002822;28;20205;-46
2021/08/09 00:06:48;;;;;;;1.70;1.60;;;10.60;64.80;;;;;;4992193;28;20586;-48
2021/08/09 00:09:19;;;;;;;2.28;1.92;;;10.60;64.80;;;;;;4993502;28;20213;-47
2021/08/09 00:11:49;;;;;;;2.10;1.70;;;10.60;64.70;;;;;;4993915;28;20202;-47
2021/08/09 00:14:20;;;;;;;2.47;1.98;;;10.60;64.70;;;;;;4993728;28;20586;-50
2021/08/09 00:16:50;;;;;;;2.35;2.05;;;10.60;64.70;;;;;;4992904;28;20217;-46
2021/08/09 00:19:21;;;;;;;2.78;1.70;;;10.60;64.60;;;;;;4993843;28;20218;-50
2021/08/09 00:21:53;;;;;;;2.30;1.73;;;10.60;64.60;;;;;;4993557;28;20210;-48
2021/08/09 00:24:24;;;;;;;2.35;1.80;;;10.60;64.60;;;;;;4994407;28;20197;-51
2021/08/09 00:26:55;;;;;;;2.38;1.73;;;10.60;64.60;;;;;;4993079;28;20213;-50
2021/08/09 00:29:25;;;;;;;2.28;1.70;;;10.60;64.60;;;;;;4993141;28;20208;-41
2021/08/09 00:31:56;;;;;;;2.70;1.55;;;10.70;64.60;;;;;;4993135;28;20260;-47
2021/08/09 00:34:26;;;;;;;2.03;1.60;;;10.70;64.60;;;;;;5001448;28;20681;-51
2021/08/09 00:36:59;;;;;;;4.05;1.70;;;10.70;64.80;;;;;;5009071;28;20225;-55
2021/08/09 00:42:00;;;;;;;2.33;1.73;;;10.70;64.80;;;;;;4972768;28;20210;-54
2021/08/09 00:44:30;;;;;;;1.60;1.50;;;10.70;64.80;;;;;;4972990;28;20198;-53
2021/08/09 00:47:01;;;;;;;3.67;1.92;;;10.70;64.80;;;;;;4973477;28;20623;-52
2021/08/09 00:49:31;;;;;;;2.42;1.60;;;10.70;64.80;;;;;;4973225;28;20658;-53
2021/08/09 00:52:04;;;;;;;2.15;1.80;;;10.70;64.90;;;;;;4973096;28;20210;-54
2021/08/09 00:54:34;;;;;;;2.28;1.60;;;10.70;64.90;;;;;;4973185;28;21428;-53
2021/08/09 00:57:05;;;;;;;1.60;1.50;;;10.70;64.90;;;;;;4972658;28;20670;-53
2021/08/09 00:59:36;;;;;;;1.67;1.58;;;10.70;64.90;;;;;;4973250;28;20226;-58
2021/08/09 01:02:06;;;;;;;2.10;1.80;;;10.70;64.80;;;;;;4972750;28;20206;-53
2021/08/09 01:04:37;;;;;;;2.13;1.77;;;10.70;64.80;;;;;;4973307;28;20202;-53
2021/08/09 01:07:10;;;;;;;2.05;1.55;;;10.70;64.80;;;;;;4972979;28;20222;-51
2021/08/09 01:09:43;;;;;;;1.90;1.80;;;10.80;64.80;;;;;;4973404;28;20630;-53
2021/08/09 01:12:16;;;;;;;2.70;1.60;;;10.80;64.80;;;;;;4973298;28;20198;-55
2021/08/09 01:14:55;;;;;;;2.22;1.98;;;10.80;64.80;;;;;;4973938;28;20210;-51
2021/08/09 01:17:27;;;;;;;2.90;1.90;;;10.80;65.60;;;;;;4972669;28;20202;-53
2021/08/09 01:20:08;;;;;;;2.47;1.77;;;10.80;64.80;;;;;;4973345;28;20292;-52
2021/08/09 01:22:45;;;;;;;1.90;1.70;;;10.80;64.80;;;;;;4972313;28;20198;-50
2021/08/09 01:25:19;;;;;;;1.95;1.75;;;10.80;64.70;;;;;;4973305;28;20594;-55
2021/08/09 01:27:52;;;;;;;2.92;1.80;;;10.80;64.70;;;;;;4972762;28;20201;-54
2021/08/09 01:30:23;;;;;;;2.08;1.80;;;10.80;64.80;;;;;;4971691;28;20202;-52
2021/08/09 01:32:54;;;;;;;2.50;1.77;;;10.80;64.80;;;;;;4972507;28;20206;-50
2021/08/09 01:35:26;;;;;;;2.50;2.00;;;10.80;64.70;;;;;;4970717;28;20216;-53
2021/08/09 01:38:00;;;;;;;1.77;1.67;;;10.80;64.70;;;;;;4972829;28;20224;-52
2021/08/09 01:40:31;;;;;;;2.45;1.95;;;10.80;64.70;;;;;;4998885;23;20585;-47
2021/08/09 01:43:03;;;;;;;2.38;2.10;;;10.80;64.70;;;;;;5012011;28;20207;-49
2021/08/09 01:45:34;;;;;;;2.05;1.83;;;10.80;64.70;;;;;;5011560;28;20220;-43
2021/08/09 01:48:04;;;;;;;1.73;1.63;;;10.80;64.70;;;;;;5019878;28;20188;-41
2021/08/09 01:50:35;;;;;;;3.30;1.90;;;10.80;64.60;;;;;;5018754;28;20201;-42
2021/08/09 01:53:06;;;;;;;2.55;2.00;;;10.80;64.70;;;;;;5011392;28;20258;-43
2021/08/09 01:55:36;;;;;;;1.80;1.70;;;10.90;64.70;;;;;;5010051;28;20228;-55
2021/08/09 01:58:09;;;;;;;2.72;1.67;;;10.90;64.70;;;;;;5011754;28;20609;-47
2021/08/09 02:00:39;;;;;;;2.67;1.83;;;10.90;64.70;;;;;;5011765;28;20205;-53
2021/08/09 02:03:10;;;;;;;3.65;2.15;;;10.90;64.70;;;;;;5011522;28;20193;-46
2021/08/09 02:05:40;;;;;;;2.00;1.80;;;10.90;64.70;;;;;;5011692;28;20221;-49
2021/08/09 02:08:13;;;;;;;2.08;1.88;;;10.90;64.70;;;;;;5010668;28;20200;-44
2021/08/09 02:10:44;;;;;;;2.20;1.98;;;10.90;64.70;;;;;;5011903;28;20604;-49
2021/08/09 02:13:19;;;;;;;2.10;1.90;;;10.90;64.70;;;;;;5010421;28;20270;-44
2021/08/09 02:15:54;;;;;;;2.10;1.67;;;10.90;64.80;;;;;;5011070;28;20228;-47
2021/08/09 02:18:28;;;;;;;3.72;1.95;;;10.90;64.70;;;;;;5010911;28;20316;-50
2021/08/09 02:20:59;;;;;;;2.05;1.77;;;10.90;64.70;;;;;;5010960;28;20674;-49
2021/08/09 02:23:36;;;;;;;1.88;1.65;;;10.90;64.70;;;;;;4994448;28;20666;-42
2021/08/09 02:26:07;;;;;;;2.72;1.92;;;10.90;64.70;;;;;;4991492;28;20284;-52
2021/08/09 02:28:41;;;;;;;4.47;1.90;;;10.90;64.70;;;;;;4991018;28;20750;-41
2021/08/09 02:31:11;;;;;;;2.55;2.35;;;10.90;64.60;;;;;;4991519;28;20202;-49
2021/08/09 02:33:42;;;;;;;2.67;1.90;;;10.90;64.70;;;;;;4992363;28;20204;-41
2021/08/09 02:36:12;;;;;;;2.42;2.10;;;10.90;64.70;;;;;;4990746;28;20587;-43
2021/08/09 02:38:43;;;;;;;2.35;1.88;;;10.90;65.50;;;;;;4991342;28;20303;-42
2021/08/09 02:41:13;;;;;;;1.98;1.80;;;10.90;64.60;;;;;;5016751;23;20225;-52
2021/08/09 02:43:46;;;;;;;2.40;2.10;;;10.90;64.70;;;;;;5011154;28;20286;-52
2021/08/09 02:46:16;;;;;;;3.08;2.40;;;11.00;64.70;;;;;;5010057;28;20220;-52
2021/08/09 02:48:47;;;;;;;2.55;2.28;;;11.00;64.70;;;;;;5010325;28;20223;-50
2021/08/09 02:51:18;;;;;;;2.50;1.77;;;11.00;64.80;;;;;;5010202;28;20300;-52
2021/08/09 02:53:49;;;;;;;2.45;2.10;;;11.00;64.70;;;;;;5011398;28;20201;-54
2021/08/09 02:56:20;;;;;;;2.00;1.80;;;11.00;64.70;;;;;;5010217;28;20584;-53
2021/08/09 02:58:53;;;;;;;2.72;2.40;;;11.00;64.80;;;;;;5010538;28;20221;-53
2021/08/09 03:01:24;;;;;;;2.33;1.95;;;11.00;64.80;;;;;;5013806;28;20800;-52
2021/08/09 03:03:55;;;;;;;2.10;1.90;;;11.00;64.80;;;;;;5014115;28;20196;-51
2021/08/09 03:06:26;;;;;;;2.25;2.00;;;11.00;64.80;;;;;;5014369;28;20216;-54
2021/08/09 03:08:57;;;;;;;2.20;2.00;;;11.00;64.80;;;;;;5011035;28;20200;-53
2021/08/09 03:11:28;;;;;;;2.47;1.85;;;11.00;65.00;;;;;;5014510;28;20220;-58
2021/08/09 03:14:00;;;;;;;2.13;1.75;;;11.00;65.00;;;;;;5015049;28;20208;-56
2021/08/09 03:16:31;;;;;;;2.20;1.85;;;11.00;65.00;;;;;;5014166;28;20720;-55
2021/08/09 03:19:02;;;;;;;2.50;1.98;;;11.00;65.00;;;;;;5012635;28;20629;-55
2021/08/09 03:21:32;;;;;;;2.55;2.17;;;11.00;65.00;;;;;;5014294;28;20250;-50
2021/08/09 03:24:03;;;;;;;2.13;1.92;;;11.00;65.00;;;;;;5014558;28;20204;-53
2021/08/09 03:26:33;;;;;;;2.20;2.00;;;11.00;65.00;;;;;;5014257;28;20228;-53
2021/08/09 03:29:06;;;;;;;2.70;2.03;;;11.10;65.00;;;;;;5014667;28;20197;-52
2021/08/09 03:31:36;;;;;;;10.65;3.10;;;11.10;65.10;;;;;;5014191;28;20204;-53
2021/08/09 03:34:07;;;;;;;3.17;2.22;;;11.10;65.30;;;;;;5013501;28;20204;-53
2021/08/09 03:36:41;;;;;;;3.40;2.30;;;11.10;65.40;;;;;;5013691;28;20220;-51
2021/08/09 03:39:11;;;;;;;2.42;1.90;;;11.10;65.40;;;;;;5013214;28;20227;-53
2021/08/09 03:41:42;;;;;;;2.70;1.88;;;11.10;65.40;;;;;;5018823;22;20244;-44
2021/08/09 03:44:14;;;;;;;3.78;2.25;;;11.10;65.30;;;;;;4974005;28;20205;-53
2021/08/09 03:46:45;;;;;;;2.40;1.90;;;11.10;65.60;;;;;;4974263;28;20245;-46
2021/08/09 03:49:15;;;;;;;2.13;1.90;;;11.10;65.20;;;;;;4975297;28;20205;-43
2021/08/09 03:51:46;;;;;;;2.60;2.30;;;11.10;65.20;;;;;;4994037;28;20202;-42
2021/08/09 03:54:16;;;;;;;2.70;2.10;;;11.10;65.10;;;;;;4994133;28;20685;-46
2021/08/09 03:56:47;;;;;;;5.50;2.08;;;11.10;65.20;;;;;;4994105;28;20218;-44
2021/08/09 03:59:19;;;;;;;3.08;2.25;;;11.10;65.10;;;;;;4993732;28;20233;-44
2021/08/09 04:01:50;;;;;;;2.47;2.28;;;11.20;65.10;;;;;;4993955;28;20198;-46
2021/08/09 04:04:21;;;;;;;3.17;2.30;;;11.10;65.10;;;;;;4993836;28;20208;-55
2021/08/09 04:06:51;;;;;;;2.60;2.30;;;11.20;65.10;;;;;;4993097;28;20712;-42
2021/08/09 04:09:22;;;;;;;2.95;2.25;;;11.20;65.20;;;;;;4997023;28;20197;-48
2021/08/09 04:11:52;;;;;;;2.88;2.08;;;11.20;65.10;;;;;;5011683;28;20201;-46
2021/08/09 04:14:25;;;;;;;2.05;1.95;;;11.20;65.20;;;;;;5013504;28;20637;-46
2021/08/09 04:16:55;;;;;;;2.72;2.30;;;11.20;65.20;;;;;;4999636;28;20224;-47
2021/08/09 04:19:26;;;;;;;2.65;2.13;;;11.20;65.10;;;;;;4992342;28;20232;-48
2021/08/09 04:21:56;;;;;;;3.13;2.03;;;11.20;65.10;;;;;;4993037;28;20689;-43
2021/08/09 04:24:27;;;;;;;2.67;2.42;;;11.20;66.00;;;;;;4993838;28;20204;-42
2021/08/09 04:26:58;;;;;;;2.80;2.28;;;11.20;65.10;;;;;;4993910;28;20218;-46
2021/08/09 04:29:30;;;;;;;3.20;2.28;;;11.20;65.20;;;;;;4993235;28;20198;-56
2021/08/09 04:32:01;;;;;;;2.28;2.00;;;11.20;65.10;;;;;;4994030;28;20197;-44
2021/08/09 04:34:31;;;;;;;2.38;2.17;;;11.20;65.00;;;;;;4992703;28;20205;-49
2021/08/09 04:37:02;;;;;;;2.45;2.25;;;11.20;65.10;;;;;;4993422;28;20217;-42
2021/08/09 04:39:37;;;;;;;3.30;2.08;;;11.20;65.00;;;;;;4992419;28;20580;-44
2021/08/09 04:42:07;;;;;;;2.50;2.30;;;11.20;65.00;;;;;;4992645;28;20236;-44
2021/08/09 04:44:40;;;;;;;2.80;2.28;;;11.20;65.00;;;;;;4993132;28;20260;-46
2021/08/09 04:47:10;;;;;;;2.75;2.10;;;11.20;65.00;;;;;;4992328;28;20260;-44
2021/08/09 04:49:42;;;;;;;2.58;2.25;;;11.20;65.00;;;;;;4992076;28;20229;-43
2021/08/09 04:52:12;;;;;;;3.42;2.58;;;11.20;65.00;;;;;;4992165;28;20256;-42
2021/08/09 04:54:42;;;;;;;2.58;2.15;;;11.20;65.00;;;;;;4992465;28;20284;-44
2021/08/09 04:57:14;;;;;;;2.97;2.50;;;11.20;65.00;;;;;;4992831;28;20593;-43
2021/08/09 04:59:47;;;;;;;2.33;2.13;;;11.20;65.00;;;;;;4992717;28;20267;-44
2021/08/09 05:02:17;;;;;;;3.63;2.50;;;11.20;65.00;;;;;;4993530;28;20252;-41
2021/08/09 05:04:47;;;;;;;2.60;2.30;;;11.20;65.00;;;;;;4993471;28;20236;-42
2021/08/09 05:07:18;;;;;;;2.38;2.17;;;11.20;65.00;;;;;;4988791;28;20312;-41
2021/08/09 05:09:48;;;;;;;3.15;2.40;;;11.20;65.10;;;;;;4992866;28;20263;-42
2021/08/09 05:12:19;;;;;;;2.75;2.40;;;11.20;65.10;;;;;;4993047;28;20622;-55
2021/08/09 05:14:51;;;;;;;2.10;1.90;;;11.20;65.00;;;;;;4992711;28;20616;-46
2021/08/09 05:17:21;;;;;;;2.70;2.28;;;11.30;65.00;;;;;;4992691;28;20253;-41
2021/08/09 05:19:53;;;;;;;2.67;1.90;;;11.30;65.00;;;;;;4992569;28;20284;-53
2021/08/09 05:22:23;;;;;;;2.65;2.38;;;11.30;65.00;;;;;;4991714;28;20302;-46
2021/08/09 05:24:54;;;;;;;2.42;2.22;;;11.30;65.00;;;;;;4993249;28;20232;-49
2021/08/09 05:27:24;;;;;;;2.67;2.17;;;11.30;65.00;;;;;;4992256;28;20200;-52
2021/08/09 05:29:57;;;;;;;3.15;2.40;;;11.20;65.00;;;;;;4992171;28;20260;-42
2021/08/09 05:32:27;;;;;;;2.85;2.50;;;11.20;65.00;;;;;;4991496;28;20312;-42
2021/08/09 05:34:57;;;;;;;2.63;2.40;;;11.30;65.10;;;;;;4992274;28;20229;-41
2021/08/09 05:37:31;;;;;;;2.92;2.40;;;11.30;65.10;;;;;;4991769;28;20229;-41
2021/08/09 05:40:01;;;;;;;2.83;2.53;;;11.30;65.90;;;;;;5004658;23;20232;-59
2021/08/09 05:42:32;;;;;;;3.83;2.53;;;11.30;65.10;;;;;;4992581;28;20241;-52
2021/08/09 05:45:05;;;;;;;3.15;2.20;;;11.30;65.10;;;;;;4993035;28;20237;-51
2021/08/09 05:47:35;;;;;;;3.55;2.75;;;11.30;65.10;;;;;;4974466;28;20628;-54
2021/08/09 05:50:06;;;;;;;3.13;2.60;;;11.20;65.00;;;;;;4980952;28;20673;-55
2021/08/09 05:52:36;;;;;;;3.67;2.63;;;11.30;65.10;;;;;;4991573;28;20237;-53
2021/08/09 05:55:07;;;;;;;3.35;2.42;;;11.30;65.20;;;;;;4991290;28;20231;-53
2021/08/09 05:57:38;;;;;;;2.92;2.30;;;11.30;65.50;;;;;;4992692;28;20231;-49
2021/08/09 06:00:12;;;;;;;2.70;2.50;;;11.30;65.60;;;;;;4992360;28;20349;-51
2021/08/09 06:02:45;;;;;;;3.00;2.65;;;11.30;65.60;;;;;;4991669;28;20232;-56
2021/08/09 06:05:16;;;;;;;2.97;2.42;;;11.30;65.50;;;;;;4991574;28;20237;-55
2021/08/09 06:07:46;;;;;;;2.30;2.10;;;11.30;65.50;;;;;;4991069;28;20693;-56
2021/08/09 06:10:17;;;;;;;2.50;2.20;;;11.30;65.50;;;;;;4991002;28;20284;-56
2021/08/09 06:12:47;;;;;;;2.45;2.25;;;11.30;65.40;;;;;;4991854;28;20673;-52
2021/08/09 06:15:19;;;;;;;3.33;2.40;;;11.30;65.40;;;;;;4990692;28;20301;-54
2021/08/09 06:17:50;;;;;;;3.15;2.33;;;11.30;65.40;;;;;;4982842;28;20642;-54
2021/08/09 06:20:20;;;;;;;4.15;2.60;;;11.30;65.40;;;;;;4971837;28;20261;-52
2021/08/09 06:22:51;;;;;;;3.03;2.50;;;11.30;65.30;;;;;;4972201;28;20607;-51
2021/08/09 06:25:21;;;;;;;3.40;2.47;;;11.30;65.40;;;;;;4972765;28;20583;-54
2021/08/09 06:27:52;;;;;;;2.63;2.13;;;11.30;65.40;;;;;;4971498;28;20245;-51
2021/08/09 06:30:24;;;;;;;2.30;2.10;;;11.30;65.30;;;;;;4972546;28;20205;-51
2021/08/09 06:32:54;;;;;;;4.80;2.85;;;11.30;65.30;;;;;;4970920;28;20229;-50
2021/08/09 06:35:25;;;;;;;3.03;2.65;;;11.30;66.10;;;;;;4971447;28;20305;-49
2021/08/09 06:37:55;;;;;;;2.78;2.30;;;11.30;65.30;;;;;;4971170;28;20230;-55
2021/08/09 06:40:26;;;;;;;4.18;2.15;;;11.30;65.30;;;;;;4996551;23;20232;-51
2021/08/09 06:42:56;;;;;;;2.70;2.47;;;11.30;65.30;;;;;;5030843;28;20231;-42
2021/08/09 06:45:29;;;;;;;3.88;2.30;;;11.30;65.30;;;;;;5030324;28;20305;-43
2021/08/09 06:47:59;;;;;;;2.47;2.28;;;11.30;65.30;;;;;;5029797;28;20239;-41
2021/08/09 06:50:29;;;;;;;3.10;2.80;;;11.40;65.30;;;;;;5030023;28;20239;-53
2021/08/09 06:53:00;;;;;;;3.20;2.90;;;11.30;65.20;;;;;;5029441;28;20286;-50
2021/08/09 06:55:31;;;;;;;2.90;2.60;;;11.40;65.20;;;;;;5030411;28;20244;-48
2021/08/09 06:58:01;;;;;;;2.80;2.50;;;11.40;65.10;;;;;;5030348;28;20235;-46
2021/08/09 07:00:33;;;;;;;3.03;2.72;;;11.40;65.10;;;;;;5029808;28;20319;-52
2021/08/09 07:03:09;;;;;;;3.47;2.78;;;11.40;65.10;;;;;;5030430;28;20228;-51
2021/08/09 07:05:45;;;;;;;3.92;2.50;;;11.40;65.10;;;;;;5030806;28;20220;-52
2021/08/09 07:08:16;;;;;;;5.32;3.17;;;11.30;65.00;;;;;;5030806;28;20300;-50
2021/08/09 07:10:47;;;;;;;3.38;3.05;;;11.30;65.00;;;;;;5030658;28;20192;-52
2021/08/09 07:13:17;;;;;;;3.05;2.70;;;11.30;65.00;;;;;;5030590;28;20534;-46
2021/08/09 07:15:50;;;;;;;3.88;3.00;;;11.30;65.00;;;;;;5030851;28;20704;-54
2021/08/09 07:18:20;;;;;;;3.30;3.00;;;11.30;65.00;;;;;;5031338;28;20270;-48
2021/08/09 07:20:50;;;;;;;4.00;2.35;;;11.30;65.00;;;;;;5031042;28;20267;-52
2021/08/09 07:23:21;;;;;;;2.40;2.20;;;11.30;65.00;;;;;;5030552;28;20232;-47
2021/08/09 07:25:52;;;;;;;2.38;2.17;;;11.30;64.90;;;;;;5030675;28;20220;-42
2021/08/09 07:28:22;;;;;;;3.58;2.88;;;11.30;64.90;;;;;;5030819;28;20196;-42
2021/08/09 07:30:54;;;;;;;2.80;2.60;;;11.30;64.90;;;;;;5030788;28;20200;-48
2021/08/09 07:33:25;;;;;;;3.85;2.65;;;11.30;64.80;;;;;;5030958;28;20231;-49
2021/08/09 07:35:55;;;;;;;3.08;2.55;;;11.30;64.80;;;;;;5030825;28;20252;-51
2021/08/09 07:38:26;;;;;;;3.05;2.60;;;11.30;64.80;;;;;;5030384;28;20231;-43
2021/08/09 07:40:56;;;;;;;2.28;2.10;;;11.30;64.80;;;;;;5031023;28;20264;-54
2021/08/09 07:43:26;;;;;;;3.42;2.53;;;11.30;64.80;;;;;;5030944;28;20239;-47
2021/08/09 07:45:59;;;;;;;3.13;2.55;;;11.30;65.00;;;;;;5030898;28;20252;-45
2021/08/09 07:48:30;;;;;;;2.83;2.45;;;11.30;65.30;;;;;;5033550;28;20231;-45
2021/08/09 07:51:01;;;;;;;2.20;2.00;;;11.30;65.50;;;;;;5033764;28;20239;-47
2021/08/09 07:53:31;;;;;;;2.58;2.35;;;11.30;65.50;;;;;;5033994;28;20232;-49
2021/08/09 07:56:01;;;;;;;2.83;2.33;;;11.30;65.50;;;;;;5033975;28;20273;-52
2021/08/09 07:58:32;;;;;;;3.53;2.50;;;11.30;65.70;;;;;;5034237;28;20243;-50
2021/08/09 08:01:04;;;;;;;3.35;2.50;;;11.30;66.00;;;;;;5034000;28;20220;-49
2021/08/09 08:03:35;;;;;;;3.28;2.50;;;11.30;66.10;;;;;;5033686;28;20289;-46
2021/08/09 08:06:05;;;;;;;3.00;2.70;;;11.30;66.00;;;;;;5033824;28;20648;-52
2021/08/09 08:08:35;;;;;;;2.92;2.60;;;11.30;66.00;;;;;;5034011;28;20652;-45
2021/08/09 08:11:06;;;;;;;3.67;2.30;;;11.30;65.90;;;;;;5034086;28;20238;-57
2021/08/09 08:13:37;;;;;;;3.40;2.35;;;11.30;65.80;;;;;;5033581;28;20208;-50
2021/08/09 08:16:10;;;;;;;3.28;2.80;;;11.30;65.70;;;;;;5033050;28;20251;-57
2021/08/09 08:18:40;;;;;;;4.00;2.50;;;11.30;65.50;;;;;;5033529;28;20203;-49
2021/08/09 08:21:11;;;;;;;2.72;2.25;;;11.30;65.50;;;;;;5030177;28;20322;-48
2021/08/09 08:23:41;;;;;;;3.22;2.50;;;11.30;65.50;;;;;;5033798;28;20230;-53
2021/08/09 08:26:11;;;;;;;3.45;2.80;;;11.30;65.40;;;;;;5033569;28;20255;-57
2021/08/09 08:28:42;;;;;;;2.78;2.30;;;11.30;65.30;;;;;;5033694;28;20642;-56
2021/08/09 08:31:14;;;;;;;3.80;2.70;;;11.30;65.20;;;;;;5033719;28;20683;-44
2021/08/09 08:33:45;;;;;;;4.05;2.92;;;11.30;65.20;;;;;;5033765;28;20227;-51
2021/08/09 08:36:15;;;;;;;3.33;2.55;;;11.30;65.10;;;;;;5033421;28;20266;-46
2021/08/09 08:38:45;;;;;;;3.08;2.75;;;11.30;65.10;;;;;;5031306;28;20224;-54
2021/08/09 08:41:16;;;;;;;3.78;2.40;;;11.20;65.00;;;;;;5033655;28;20307;-51
2021/08/09 08:43:46;;;;;;;2.88;2.60;;;11.20;64.90;;;;;;5033379;28;20203;-46
2021/08/09 08:46:19;;;;;;;3.45;2.70;;;11.20;65.00;;;;;;5033102;28;20248;-49
2021/08/09 08:48:49;;;;;;;3.00;2.70;;;11.20;65.00;;;;;;5033309;28;20475;-53
2021/08/09 08:51:22;;;;;;;2.50;2.25;;;11.20;64.90;;;;;;5032844;28;20204;-49
2021/08/09 08:53:52;;;;;;;3.22;2.30;;;11.20;64.80;;;;;;5033080;28;20285;-52
2021/08/09 08:56:23;;;;;;;2.88;2.25;;;11.20;64.80;;;;;;5032937;28;20309;-55
2021/08/09 08:58:53;;;;;;;2.90;2.22;;;11.20;64.80;;;;;;5032711;28;20232;-48
2021/08/09 09:01:46;;;;;;;3.55;2.72;;;11.20;64.80;;;;;;5033131;28;20259;-50
2021/08/09 09:04:23;;;;;;;2.78;2.38;;;11.20;64.80;;;;;;5030666;28;20666;-49
2021/08/09 09:07:03;;;;;;;2.45;2.00;;;11.20;64.70;;;;;;5032447;28;20251;-55
2021/08/09 09:09:34;;;;;;;2.92;2.50;;;11.20;64.70;;;;;;5032756;28;20192;-48
2021/08/09 09:12:17;;;;;;;2.42;2.03;;;11.20;64.70;;;;;;5032873;28;20227;-54
2021/08/09 09:14:47;;;;;;;2.80;2.38;;;11.20;64.60;;;;;;5032675;28;20200;-54
2021/08/09 09:17:20;;;;;;;2.80;2.20;;;11.10;64.60;;;;;;5032580;28;20254;-45
2021/08/09 09:19:51;;;;;;;2.42;2.22;;;11.10;64.70;;;;;;5023680;28;20243;-45
2021/08/09 09:22:24;;;;;;;3.15;2.30;;;11.10;64.60;;;;;;5011389;28;20264;-44
2021/08/09 09:24:54;;;;;;;2.47;2.10;;;11.10;64.70;;;;;;5012352;28;20247;-48
2021/08/09 09:27:31;;;;;;;2.97;2.20;;;11.10;64.70;;;;;;5031193;28;20565;-43
2021/08/09 09:30:02;;;;;;;2.40;2.15;;;11.10;64.60;;;;;;5032065;28;20234;-42
2021/08/09 09:32:34;;;;;;;2.55;2.35;;;11.10;64.60;;;;;;5031592;28;20242;-50
2021/08/09 09:35:04;;;;;;;2.63;2.20;;;11.10;64.50;;;;;;5031903;28;20231;-42
2021/08/09 09:37:36;;;;;;;2.10;1.90;;;11.10;64.90;;;;;;5030945;28;20224;-47
2021/08/09 09:40:11;;;;;;;2.72;2.10;;;11.10;65.20;;;;;;5032497;28;20200;-43
2021/08/09 09:42:41;;;;;;;2.47;2.08;;;11.10;65.20;;;;;;5029480;28;20286;-45
2021/08/09 09:45:22;;;;;;;3.40;2.22;;;11.10;65.10;;;;;;5031765;28;20197;-44
2021/08/09 09:48:06;;;;;;;2.63;2.20;;;11.10;65.10;;;;;;5031994;28;20468;-42
2021/08/09 09:50:38;;;;;;;2.50;1.90;;;11.10;65.00;;;;;;5031422;28;20291;-43
2021/08/09 09:53:18;;;;;;;2.92;2.33;;;11.10;64.90;;;;;;5031874;28;20228;-44
2021/08/09 09:55:50;;;;;;;2.72;2.22;;;11.00;64.80;;;;;;5030301;28;20275;-43
2021/08/09 09:58:20;;;;;;;4.25;2.15;;;11.00;64.70;;;;;;5031464;28;20239;-42
2021/08/09 10:00:52;;;;;;;6.72;2.33;;;11.00;64.70;;;;;;5023354;28;20288;-43
2021/08/09 10:03:24;;;;;;;3.35;2.20;;;11.00;64.70;;;;;;5011720;28;20292;-44
2021/08/09 10:05:54;;;;;;;3.55;1.90;;;11.00;64.70;;;;;;5011483;28;20249;-42
2021/08/09 10:08:25;;;;;;;2.40;1.95;;;11.00;64.60;;;;;;5011147;28;20232;-43
2021/08/09 10:10:55;;;;;;;2.60;2.20;;;11.00;64.60;;;;;;5010765;28;20236;-42
2021/08/09 10:13:26;;;;;;;3.00;2.20;;;11.00;64.50;;;;;;5020703;28;20195;-45
2021/08/09 10:15:57;;;;;;;2.90;1.83;;;11.00;64.50;;;;;;5030824;28;20652;-43
2021/08/09 10:18:29;;;;;;;3.58;2.00;;;11.00;64.50;;;;;;5030810;28;20232;-47
2021/08/09 10:21:01;;;;;;;3.13;2.15;;;11.00;64.40;;;;;;5030229;28;20239;-45
2021/08/09 10:23:42;;;;;;;2.08;1.95;;;11.00;64.40;;;;;;5029911;28;20613;-42
2021/08/09 10:26:13;;;;;;;2.47;2.10;;;11.00;64.40;;;;;;5030882;28;20321;-43
2021/08/09 10:29:05;;;;;;;1.73;1.63;;;10.90;64.30;;;;;;5030782;28;20228;-42
2021/08/09 10:31:39;;;;;;;3.10;2.00;;;10.90;64.20;;;;;;5030879;28;20699;-42
2021/08/09 10:34:11;;;;;;;2.30;1.95;;;10.90;64.20;;;;;;5030577;28;20207;-45
2021/08/09 10:37:09;;;;;;;2.03;1.70;;;10.90;64.20;;;;;;5030140;28;20259;-44
2021/08/09 10:39:59;;;;;;;2.63;2.00;;;10.90;64.50;;;;;;5027853;28;20203;-42
2021/08/09 10:42:33;;;;;;;2.70;2.20;;;10.90;64.20;;;;;;5030519;28;20260;-46
2021/08/09 10:45:04;;;;;;;2.25;1.92;;;10.90;64.10;;;;;;5029903;28;20192;-43
2021/08/09 10:47:52;;;;;;;1.70;1.60;;;10.90;64.20;;;;;;5030919;28;20249;-42
2021/08/09 10:50:55;;;;;;;2.10;1.90;;;10.90;64.20;;;;;;5030646;28;20579;-42
2021/08/09 10:53:46;;;;;;;1.80;1.70;;;10.90;64.20;;;;;;5030599;28;20230;-44
2021/08/09 10:56:49;;;;;;;2.17;1.98;;;10.80;64.10;;;;;;5030634;28;20266;-45
2021/08/09 10:59:46;;;;;;;2.05;1.85;;;10.80;64.10;;;;;;4988034;28;20233;-43
2021/08/09 11:02:25;;;;;;;3.08;1.90;;;10.90;64.10;;;;;;5030395;28;20267;-44
2021/08/09 11:05:29;;;;;;;2.08;1.88;;;10.90;64.10;;;;;;5030677;28;20624;-42
2021/08/09 11:08:32;;;;;;;2.15;1.95;;;10.80;64.10;;;;;;5029558;28;20238;-43
2021/08/09 11:11:09;;;;;;;2.00;1.85;;;10.80;64.10;;;;;;5029994;28;20196;-44
2021/08/09 11:14:14;;;;;;;4.28;1.85;;;10.80;64.10;;;;;;5030748;28;20250;-43
2021/08/09 11:16:44;;;;;;;2.22;1.83;;;10.80;64.20;;;;;;5030597;28;20269;-43
2021/08/09 11:19:24;;;;;;;2.15;1.80;;;10.80;64.20;;;;;;5030528;28;20227;-44
2021/08/09 11:21:59;;;;;;;1.63;1.52;;;10.80;64.20;;;;;;5032654;28;20649;-42
2021/08/09 11:24:39;;;;;;;1.98;1.60;;;10.80;64.40;;;;;;5033751;28;20610;-44
2021/08/09 11:27:10;;;;;;;1.70;1.60;;;10.70;64.30;;;;;;5034087;28;20255;-51
2021/08/09 11:29:56;;;;;;;2.40;1.70;;;10.70;64.40;;;;;;5033773;28;20671;-43
2021/08/09 11:32:40;;;;;;;1.75;1.60;;;10.70;64.40;;;;;;5033875;28;20235;-53
2021/08/09 11:35:10;;;;;;;2.17;1.60;;;10.80;64.50;;;;;;5034056;28;20679;-45
2021/08/09 11:37:59;;;;;;;1.90;1.70;;;10.80;64.50;;;;;;5033701;28;20467;-42
2021/08/09 11:40:42;;;;;;;1.77;1.67;;;10.70;64.40;;;;;;5014561;28;20205;-46
2021/08/09 11:43:12;;;;;;;1.80;1.50;;;10.80;64.50;;;;;;5014221;28;20311;-43
2021/08/09 11:45:43;;;;;;;1.65;1.55;;;10.80;64.50;;;;;;5013266;28;20213;-50
2021/08/09 11:48:13;;;;;;;1.80;1.70;;;10.80;64.50;;;;;;5014060;28;20239;-42
2021/08/09 11:50:44;;;;;;;2.13;1.55;;;10.80;64.50;;;;;;5026909;28;20250;-44
2021/08/09 11:53:14;;;;;;;2.13;1.73;;;10.70;64.50;;;;;;5032749;28;20196;-44
2021/08/09 11:55:47;;;;;;;1.45;1.35;;;10.70;64.50;;;;;;5032504;28;20299;-45
2021/08/09 11:58:31;;;;;;;2.45;1.70;;;10.70;64.50;;;;;;5033357;28;20235;-42
2021/08/09 12:01:02;;;;;;;1.77;1.65;;;10.70;64.50;;;;;;5033466;28;20246;-45
2021/08/09 12:03:32;;;;;;;1.75;1.60;;;10.70;64.60;;;;;;5033145;28;20255;-43
2021/08/09 12:06:26;;;;;;;1.80;1.70;;;10.70;64.50;;;;;;5033355;28;20649;-44
2021/08/09 12:08:56;;;;;;;1.67;1.50;;;10.70;64.50;;;;;;5032907;28;20278;-43
2021/08/09 12:11:29;;;;;;;1.67;1.48;;;10.70;64.50;;;;;;5032800;28;20242;-43
2021/08/09 12:14:07;;;;;;;2.15;1.30;;;10.70;64.50;;;;;;5033665;28;20268;-47
2021/08/09 12:16:47;;;;;;;1.55;1.42;;;10.70;64.50;;;;;;5033026;28;20313;-43
2021/08/09 12:19:19;;;;;;;1.83;1.40;;;10.70;64.50;;;;;;5031217;28;20234;-42
2021/08/09 12:21:49;;;;;;;1.50;1.40;;;10.70;64.50;;;;;;5033334;28;20227;-47
2021/08/09 12:24:24;;;;;;;1.60;1.50;;;10.70;64.50;;;;;;5032462;28;20196;-45
2021/08/09 12:26:56;;;;;;;2.00;1.70;;;10.70;64.50;;;;;;5032083;28;20258;-43
2021/08/09 12:29:26;;;;;;;1.58;1.40;;;10.70;64.50;;;;;;5032940;28;20242;-43
2021/08/09 12:31:57;;;;;;;2.75;1.52;;;10.70;64.50;;;;;;5032003;28;20231;-42
2021/08/09 12:34:27;;;;;;;1.73;1.48;;;10.70;64.50;;;;;;5032422;28;20302;-43
2021/08/09 12:37:11;;;;;;;1.33;1.20;;;10.70;64.50;;;;;;5032517;28;20696;-45
2021/08/09 12:39:41;;;;;;;1.60;1.50;;;10.70;64.50;;;;;;5031555;28;20337;-44
2021/08/09 12:42:20;;;;;;;1.52;1.42;;;10.70;64.50;;;;;;5032412;28;20266;-47
2021/08/09 12:44:51;;;;;;;1.42;1.33;;;10.70;64.50;;;;;;5031737;28;20626;-45
2021/08/09 12:47:21;;;;;;;2.00;1.27;;;10.70;64.40;;;;;;5022713;28;20267;-42
2021/08/09 12:49:53;;;;;;;1.98;1.42;;;10.70;64.50;;;;;;5013491;28;20715;-43
2021/08/09 12:52:23;;;;;;;1.65;1.55;;;10.70;64.40;;;;;;5013626;28;20228;-42
2021/08/09 12:54:53;;;;;;;1.50;1.40;;;10.70;64.50;;;;;;5012884;28;20237;-44
2021/08/09 12:57:26;;;;;;;1.60;1.50;;;10.70;64.50;;;;;;5012898;28;20224;-42
2021/08/09 12:59:56;;;;;;;1.58;1.48;;;10.70;64.50;;;;;;5013424;28;20253;-45
2021/08/09 13:02:26;;;;;;;2.15;1.33;;;10.70;64.40;;;;;;5013218;28;20256;-45
2021/08/09 13:04:57;;;;;;;1.58;1.25;;;10.70;64.40;;;;;;5016752;28;20778;-42
2021/08/09 13:07:27;;;;;;;1.95;1.20;;;10.70;64.40;;;;;;5032373;28;20239;-42
2021/08/09 13:09:58;;;;;;;1.95;1.58;;;10.70;64.40;;;;;;5032904;28;20232;-45
2021/08/09 13:12:30;;;;;;;1.20;1.10;;;10.70;64.40;;;;;;5032841;28;20322;-47
2021/08/09 13:15:01;;;;;;;1.38;1.27;;;10.70;64.40;;;;;;5032452;28;20683;-44
2021/08/09 13:17:33;;;;;;;1.58;1.35;;;10.70;64.30;;;;;;5032126;28;20238;-43
2021/08/09 13:20:03;;;;;;;1.40;1.20;;;10.70;64.30;;;;;;5032654;28;20208;-42